Time;durP1;ratioP1;P1;durP2;ratioP2;P2;SDS_P1;SDS_P2;PMS_P1;PMS_P2;Temp;Humidity;BMP_temperature;BMP_pressure;BME280_temperature;BME280_humidity;BME280_pressure;Samples;Min_cycle;Max_cycle;Signal;HPM_P1;HPM_P2
2021/11/22 00:00:06;;;;;;;12.43;9.85;;;;;;;7.81;99.81;99171.53;5067042;28;20287;-74
2021/11/22 00:02:33;;;;;;;13.25;10.18;;;;;;;7.86;100.00;99182.00;5060994;28;20235;-73
2021/11/22 00:05:00;;;;;;;15.27;11.30;;;;;;;7.97;99.99;99181.44;5064041;28;20422;-73
2021/11/22 00:07:26;;;;;;;13.38;10.05;;;;;;;8.01;99.03;99183.88;5056968;28;20655;-72
2021/11/22 00:09:54;;;;;;;12.60;9.25;;;;;;;8.03;98.14;99173.06;5056465;28;20667;-74
2021/11/22 00:12:21;;;;;;;13.30;9.38;;;;;;;8.05;97.87;99176.50;5063751;28;20638;-74
2021/11/22 00:14:48;;;;;;;11.75;10.25;;;;;;;8.00;98.47;99176.75;5064870;28;20204;-74
2021/11/22 00:17:15;;;;;;;12.52;9.98;;;;;;;8.16;97.05;99176.78;5067440;28;20600;-73
2021/11/22 00:19:42;;;;;;;18.80;11.68;;;;;;;7.81;97.88;99187.63;5066548;28;20195;-75
2021/11/22 00:22:08;;;;;;;15.18;10.63;;;;;;;7.83;99.03;99174.16;5062997;28;20319;-74
2021/11/22 00:24:35;;;;;;;15.23;10.70;;;;;;;7.80;99.18;99182.31;5065286;28;20217;-73
2021/11/22 00:27:03;;;;;;;15.88;10.75;;;;;;;7.73;100.00;99190.72;5069827;28;20644;-74
2021/11/22 00:29:30;;;;;;;16.38;9.63;;;;;;;7.67;100.00;99196.41;5066293;28;20287;-74
2021/11/22 00:31:57;;;;;;;13.75;9.85;;;;;;;7.62;100.00;99182.38;5066513;28;20230;-74
2021/11/22 00:34:24;;;;;;;15.00;10.43;;;;;;;7.66;100.00;99191.97;5061766;28;20317;-73
2021/11/22 00:36:50;;;;;;;14.15;11.13;;;;;;;7.58;100.00;99194.19;5064251;28;20242;-74
2021/11/22 00:39:17;;;;;;;15.48;10.38;;;;;;;7.59;100.00;99198.59;5068451;28;20218;-74
2021/11/22 00:41:44;;;;;;;16.13;11.00;;;;;;;7.69;100.00;99188.28;5063037;28;20197;-74
2021/11/22 00:44:12;;;;;;;13.07;10.10;;;;;;;7.48;100.00;99192.94;5067925;28;20220;-74
2021/11/22 00:46:39;;;;;;;14.68;10.07;;;;;;;7.38;100.00;99197.03;5070043;28;20242;-74
2021/11/22 00:49:05;;;;;;;15.18;9.82;;;;;;;7.42;100.00;99201.31;5055589;28;20215;-74
2021/11/22 00:51:33;;;;;;;11.57;8.77;;;;;;;7.68;100.00;99210.66;5062902;28;20230;-74
2021/11/22 00:53:59;;;;;;;15.55;11.20;;;;;;;7.65;100.00;99202.78;5063081;28;20231;-74
2021/11/22 00:56:28;;;;;;;14.27;10.10;;;;;;;7.57;100.00;99213.03;5063121;28;20238;-74
2021/11/22 00:58:54;;;;;;;11.95;9.15;;;;;;;7.48;100.00;99215.25;5069071;28;20201;-75
2021/11/22 01:01:23;;;;;;;14.20;10.05;;;;;;;7.25;100.00;99210.19;5062660;28;20188;-74
2021/11/22 01:03:49;;;;;;;14.30;9.27;;;;;;;7.48;100.00;99209.00;5065146;28;20307;-74
2021/11/22 01:06:16;;;;;;;13.20;9.23;;;;;;;7.69;100.00;99212.41;5060206;28;20600;-73
2021/11/22 01:08:43;;;;;;;17.17;10.10;;;;;;;7.68;100.00;99210.66;5054726;28;20317;-73
2021/11/22 01:11:09;;;;;;;13.70;9.00;;;;;;;7.54;100.00;99216.72;5059392;28;20228;-73
2021/11/22 01:13:36;;;;;;;13.63;9.38;;;;;;;7.44;100.00;99216.34;5056318;28;20275;-73
2021/11/22 01:16:03;;;;;;;18.33;10.57;;;;;;;7.33;100.00;99224.06;5060677;28;20230;-74
2021/11/22 01:18:31;;;;;;;17.58;9.20;;;;;;;7.42;100.00;99218.25;5070840;28;20620;-73
2021/11/22 01:20:57;;;;;;;12.93;9.50;;;;;;;7.60;100.00;99219.09;5059599;28;20224;-73
2021/11/22 01:23:24;;;;;;;13.82;9.32;;;;;;;7.78;100.00;99211.91;5065366;28;20702;-73
2021/11/22 01:25:51;;;;;;;11.75;8.55;;;;;;;7.82;99.04;99221.50;5057502;28;20232;-73
2021/11/22 01:28:17;;;;;;;12.70;8.35;;;;;;;7.61;98.86;99228.84;5071817;28;20283;-73
2021/11/22 01:30:44;;;;;;;15.80;7.72;;;;;;;7.34;99.11;99236.50;5066866;28;20289;-74
2021/11/22 01:33:13;;;;;;;15.48;8.45;;;;;;;7.42;99.91;99237.00;5062410;28;20688;-72
2021/11/22 01:35:42;;;;;;;13.75;7.72;;;;;;;7.39;98.85;99233.59;5065441;28;20232;-75
2021/11/22 01:38:08;;;;;;;10.25;7.43;;;;;;;7.49;98.53;99237.53;5066173;28;20200;-72
2021/11/22 01:40:35;;;;;;;9.60;7.10;;;;;;;7.58;97.40;99234.38;5064620;28;20187;-74
2021/11/22 01:43:02;;;;;;;65.90;35.10;;;;;;;7.62;98.07;99227.94;5059559;28;20301;-75
2021/11/22 01:45:31;;;;;;;16.52;8.32;;;;;;;7.59;96.17;99245.97;5063487;28;20641;-73
2021/11/22 01:47:58;;;;;;;10.80;7.28;;;;;;;7.42;97.38;99247.69;5053936;28;20198;-75
2021/11/22 01:50:25;;;;;;;12.43;7.45;;;;;;;7.52;97.93;99246.28;5063458;28;20222;-72
2021/11/22 01:52:55;;;;;;;12.10;7.18;;;;;;;7.62;96.58;99253.84;5065541;28;20620;-73
2021/11/22 01:55:25;;;;;;;10.15;6.20;;;;;;;7.82;94.86;99252.81;5063744;28;20791;-74
2021/11/22 01:57:53;;;;;;;9.70;6.55;;;;;;;7.63;94.17;99252.91;5053858;28;20277;-74
2021/11/22 02:00:22;;;;;;;11.57;6.20;;;;;;;7.65;94.01;99254.56;5061959;28;20229;-74
2021/11/22 02:02:49;;;;;;;11.82;5.50;;;;;;;7.75;94.09;99256.75;5065042;28;20309;-73
2021/11/22 02:05:16;;;;;;;9.18;5.90;;;;;;;7.78;93.33;99267.31;5063856;28;20232;-73
2021/11/22 02:07:43;;;;;;;9.30;5.85;;;;;;;7.87;92.36;99270.41;5054841;28;20312;-73
2021/11/22 02:10:12;;;;;;;11.35;6.70;;;;;;;7.69;93.58;99264.19;5055056;28;20238;-73
2021/11/22 02:12:38;;;;;;;10.68;6.90;;;;;;;7.82;93.64;99272.44;5053719;28;20215;-73
2021/11/22 02:15:07;;;;;;;12.32;6.18;;;;;;;7.77;93.68;99273.63;5067663;28;20283;-73
2021/11/22 02:17:36;;;;;;;8.43;5.90;;;;;;;7.70;93.50;99278.44;5056071;28;20689;-72
2021/11/22 02:20:07;;;;;;;6.97;5.85;;;;;;;7.99;93.16;99268.88;5053315;28;20253;-73
2021/11/22 02:22:34;;;;;;;10.60;5.90;;;;;;;8.06;91.98;99277.47;5057654;28;20526;-73
2021/11/22 02:25:04;;;;;;;9.75;5.70;;;;;;;8.13;91.59;99274.38;5064714;28;20243;-74
2021/11/22 02:27:32;;;;;;;9.80;5.32;;;;;;;8.18;91.86;99268.75;5057556;28;20278;-74
2021/11/22 02:29:59;;;;;;;9.90;5.82;;;;;;;8.17;91.10;99275.09;5062902;28;20283;-74
2021/11/22 02:32:26;;;;;;;13.50;6.13;;;;;;;8.31;89.36;99266.28;5060887;28;20276;-73
2021/11/22 02:34:52;;;;;;;18.25;6.07;;;;;;;8.20;89.16;99272.22;5061366;28;20275;-72
2021/11/22 02:37:22;;;;;;;13.05;6.32;;;;;;;8.30;88.81;99275.31;5063676;28;20734;-73
2021/11/22 02:39:49;;;;;;;14.55;6.03;;;;;;;8.24;89.08;99286.34;5058058;28;20690;-74
2021/11/22 02:42:23;;;;;;;8.55;6.10;;;;;;;8.04;90.27;99279.34;5069221;28;20273;-72
2021/11/22 02:44:50;;;;;;;10.90;5.70;;;;;;;8.14;89.87;99280.63;5061217;28;20678;-73
2021/11/22 02:47:17;;;;;;;12.10;6.68;;;;;;;8.02;90.27;99282.09;5067954;28;20224;-73
2021/11/22 02:49:43;;;;;;;11.55;6.20;;;;;;;8.30;89.46;99280.66;5053249;28;20273;-74
2021/11/22 02:52:10;;;;;;;14.60;7.03;;;;;;;8.23;89.26;99285.50;5061375;28;20274;-74
2021/11/22 02:54:38;;;;;;;8.23;6.03;;;;;;;7.98;90.62;99285.91;5064902;28;20279;-74
2021/11/22 02:57:06;;;;;;;12.30;6.78;;;;;;;7.97;91.06;99288.69;5064071;28;20279;-74
2021/11/22 02:59:33;;;;;;;8.35;5.70;;;;;;;7.84;91.93;99288.44;5064467;28;20216;-74
2021/11/22 03:01:59;;;;;;;9.93;7.03;;;;;;;7.90;91.95;99294.34;5064089;28;20625;-74
2021/11/22 03:04:32;;;;;;;14.27;7.20;;;;;;;7.72;92.24;99301.53;5065485;28;20294;-74
2021/11/22 03:06:59;;;;;;;11.77;7.20;;;;;;;7.75;92.27;99300.50;5057986;28;20644;-73
2021/11/22 03:09:25;;;;;;;11.02;7.13;;;;;;;7.57;93.70;99296.06;5060248;28;20254;-74
2021/11/22 03:11:53;;;;;;;9.23;7.00;;;;;;;7.77;93.34;99295.94;5057737;28;20296;-73
2021/11/22 03:14:20;;;;;;;14.23;7.68;;;;;;;7.79;92.65;99293.19;5060254;28;20279;-74
2021/11/22 03:16:47;;;;;;;11.50;7.47;;;;;;;7.57;93.00;99291.59;5060811;28;20667;-74
2021/11/22 03:19:14;;;;;;;8.82;7.22;;;;;;;7.45;94.01;99302.94;5064317;28;20188;-73
2021/11/22 03:21:41;;;;;;;12.02;7.25;;;;;;;7.39;94.83;99295.19;5064387;28;20225;-73
2021/11/22 03:24:08;;;;;;;10.98;6.90;;;;;;;7.48;95.01;99300.09;5061093;28;20222;-74
2021/11/22 03:26:35;;;;;;;12.63;6.45;;;;;;;7.40;95.05;99303.16;5059079;28;20215;-73
2021/11/22 03:29:03;;;;;;;10.40;6.82;;;;;;;7.55;94.58;99296.16;5066607;28;20293;-75
2021/11/22 03:31:32;;;;;;;14.75;7.20;;;;;;;7.60;94.41;99295.91;5069927;28;20218;-74
2021/11/22 03:33:59;;;;;;;11.38;7.53;;;;;;;7.53;93.31;99303.44;5066453;28;20244;-74
2021/11/22 03:36:26;;;;;;;11.60;7.45;;;;;;;7.39;94.47;99300.53;5067985;28;20236;-74
2021/11/22 03:38:53;;;;;;;9.25;6.65;;;;;;;7.50;94.39;99304.41;5066132;28;20245;-73
2021/11/22 03:41:20;;;;;;;13.55;6.88;;;;;;;7.49;93.66;99309.88;5068636;28;20194;-74
2021/11/22 03:43:49;;;;;;;12.63;7.60;;;;;;;7.56;93.65;99315.78;5066795;28;20290;-73
2021/11/22 03:46:19;;;;;;;8.32;5.72;;;;;;;7.56;93.14;99319.34;5061807;28;20183;-74
2021/11/22 03:48:46;;;;;;;14.40;7.57;;;;;;;7.36;93.36;99330.19;5060016;28;20226;-74
2021/11/22 03:51:13;;;;;;;12.43;6.50;;;;;;;7.45;94.17;99327.03;5067617;28;20273;-74
2021/11/22 03:53:40;;;;;;;12.75;7.45;;;;;;;7.46;93.81;99335.00;5066857;28;20191;-75
2021/11/22 03:56:08;;;;;;;13.05;5.95;;;;;;;7.67;92.97;99330.38;5067936;28;20222;-72
2021/11/22 03:58:34;;;;;;;12.70;6.13;;;;;;;7.64;91.61;99324.28;5067414;28;20612;-73
2021/11/22 04:01:01;;;;;;;7.55;6.32;;;;;;;7.64;90.99;99335.00;5068023;28;20581;-74
2021/11/22 04:03:30;;;;;;;11.57;6.63;;;;;;;7.85;90.07;99333.94;5067691;28;21106;-73
2021/11/22 04:05:56;;;;;;;7.75;5.97;;;;;;;7.57;90.74;99331.78;5065685;28;20275;-74
2021/11/22 04:08:23;;;;;;;13.45;6.00;;;;;;;7.49;91.28;99342.03;5068876;28;20287;-72
2021/11/22 04:10:50;;;;;;;11.02;6.10;;;;;;;7.64;90.78;99341.25;5067232;28;20334;-74
2021/11/22 04:13:17;;;;;;;8.23;5.93;;;;;;;7.62;90.24;99345.84;5066940;28;20214;-75
2021/11/22 04:15:45;;;;;;;13.85;6.72;;;;;;;7.47;91.27;99350.13;5065721;28;20699;-73
2021/11/22 04:18:13;;;;;;;11.50;5.88;;;;;;;7.61;90.90;99348.56;5069264;28;20275;-73
2021/11/22 04:20:42;;;;;;;11.95;6.80;;;;;;;7.28;92.25;99350.16;5075240;28;20608;-73
2021/11/22 04:23:10;;;;;;;12.82;6.40;;;;;;;7.53;91.71;99365.03;5069654;28;20310;-74
2021/11/22 04:25:37;;;;;;;11.20;6.15;;;;;;;7.40;91.43;99364.78;5064600;28;20188;-74
2021/11/22 04:28:05;;;;;;;9.32;5.70;;;;;;;7.50;90.13;99368.72;5066837;28;20224;-74
2021/11/22 04:30:32;;;;;;;8.18;5.85;;;;;;;7.35;91.39;99368.59;5066621;28;20262;-73
2021/11/22 04:32:59;;;;;;;11.05;5.57;;;;;;;7.44;91.12;99376.19;5067949;28;20221;-73
2021/11/22 04:35:26;;;;;;;12.75;5.97;;;;;;;7.46;90.04;99377.88;5066687;28;20583;-74
2021/11/22 04:37:54;;;;;;;16.83;5.95;;;;;;;7.34;90.72;99377.59;5063627;28;20230;-74
2021/11/22 04:40:21;;;;;;;11.05;6.65;;;;;;;7.26;92.10;99384.19;5059174;28;20289;-74
2021/11/22 04:42:49;;;;;;;13.57;5.95;;;;;;;7.19;92.08;99389.88;5068873;28;20225;-74
2021/11/22 04:45:17;;;;;;;8.43;5.13;;;;;;;7.21;92.69;99393.38;5067071;28;20189;-73
2021/11/22 04:47:44;;;;;;;9.90;5.10;;;;;;;7.26;91.19;99397.59;5069294;28;20648;-74
2021/11/22 04:50:11;;;;;;;11.05;5.65;;;;;;;7.43;90.78;99393.22;5059868;28;20636;-74
2021/11/22 04:52:38;;;;;;;10.90;5.53;;;;;;;7.25;91.07;99393.16;5073375;28;20194;-74
2021/11/22 04:55:07;;;;;;;8.43;4.50;;;;;;;7.14;90.52;99405.31;5066611;28;20281;-73
2021/11/22 04:57:34;;;;;;;7.43;5.20;;;;;;;7.06;91.67;99411.91;5064146;28;20222;-74
2021/11/22 05:00:01;;;;;;;6.35;4.80;;;;;;;7.01;91.97;99410.38;5068904;28;20228;-74
2021/11/22 05:02:28;;;;;;;8.05;4.55;;;;;;;7.15;92.16;99415.97;5064437;28;20205;-74
2021/11/22 05:04:55;;;;;;;8.35;4.43;;;;;;;7.27;90.23;99412.69;5060918;28;20238;-73
2021/11/22 05:07:21;;;;;;;10.45;4.75;;;;;;;7.24;91.10;99417.34;5062441;28;20273;-74
2021/11/22 05:09:48;;;;;;;9.68;4.97;;;;;;;7.34;90.52;99420.44;5063062;28;20222;-74
2021/11/22 05:12:16;;;;;;;10.25;5.20;;;;;;;7.54;88.78;99412.31;5062514;28;20278;-73
2021/11/22 05:14:43;;;;;;;10.23;5.05;;;;;;;7.46;87.96;99422.53;5057653;28;20186;-72
2021/11/22 05:17:10;;;;;;;8.20;4.90;;;;;;;7.49;87.89;99422.41;5066032;28;20275;-73
2021/11/22 05:19:38;;;;;;;10.98;5.22;;;;;;;7.48;87.22;99420.63;5048587;28;20218;-73
2021/11/22 05:22:05;;;;;;;9.05;4.47;;;;;;;7.50;88.05;99427.66;5061593;28;20206;-73
2021/11/22 05:24:32;;;;;;;9.57;4.80;;;;;;;7.51;87.64;99426.72;5064251;28;20300;-74
2021/11/22 05:27:03;;;;;;;6.05;4.43;;;;;;;7.39;87.67;99427.31;5056481;28;20222;-75
2021/11/22 05:29:31;;;;;;;6.72;5.18;;;;;;;7.30;88.42;99425.97;5054698;28;20567;-74
2021/11/22 05:31:58;;;;;;;9.77;5.07;;;;;;;7.34;87.84;99441.88;5057141;28;20218;-73
2021/11/22 05:34:25;;;;;;;8.18;4.47;;;;;;;7.36;87.88;99437.31;5069223;28;20555;-74
2021/11/22 05:36:51;;;;;;;10.65;6.18;;;;;;;7.30;87.76;99452.75;5059877;28;20198;-73
2021/11/22 05:39:18;;;;;;;8.15;5.20;;;;;;;7.44;87.79;99451.19;5063756;28;20548;-73
2021/11/22 05:41:44;;;;;;;9.18;4.35;;;;;;;7.43;87.41;99455.69;5065549;28;20217;-74
2021/11/22 05:44:11;;;;;;;9.20;4.95;;;;;;;7.38;87.03;99448.81;5065060;28;20260;-74
2021/11/22 05:46:39;;;;;;;8.73;4.50;;;;;;;7.35;87.17;99451.63;5065709;28;20285;-73
2021/11/22 05:49:06;;;;;;;4.88;3.88;;;;;;;7.30;87.92;99460.78;5064599;28;20225;-73
2021/11/22 05:51:33;;;;;;;9.05;4.68;;;;;;;7.43;86.77;99471.75;5064968;28;20622;-75
2021/11/22 05:54:02;;;;;;;8.68;4.63;;;;;;;7.41;86.65;99467.41;5065362;28;20259;-73
2021/11/22 05:56:29;;;;;;;10.60;4.88;;;;;;;7.40;86.65;99474.59;5057605;28;20235;-73
2021/11/22 05:58:55;;;;;;;7.45;3.70;;;;;;;7.39;85.94;99480.00;5065036;28;20234;-75
2021/11/22 06:01:22;;;;;;;6.43;3.45;;;;;;;7.52;85.90;99481.19;5053800;28;20273;-75
2021/11/22 06:03:50;;;;;;;7.93;4.45;;;;;;;7.53;85.63;99480.25;5061660;28;20304;-74
2021/11/22 06:06:17;;;;;;;12.45;9.52;;;;;;;7.39;85.26;99474.66;5061644;28;20277;-73
2021/11/22 06:08:43;;;;;;;10.45;7.00;;;;;;;7.44;86.56;99478.88;5061280;28;20313;-74
2021/11/22 06:11:10;;;;;;;12.32;4.22;;;;;;;7.61;86.01;99480.75;5060418;28;20273;-75
2021/11/22 06:13:36;;;;;;;9.88;4.00;;;;;;;7.51;85.89;99482.13;5061978;28;20213;-74
2021/11/22 06:16:03;;;;;;;12.20;3.65;;;;;;;7.50;85.73;99488.41;5061165;28;20284;-73
2021/11/22 06:18:30;;;;;;;8.82;3.97;;;;;;;7.55;86.48;99497.09;5061108;28;20598;-74
2021/11/22 06:20:58;;;;;;;11.30;4.03;;;;;;;7.55;85.88;99499.78;5061019;28;20273;-74
2021/11/22 06:23:25;;;;;;;12.65;4.55;;;;;;;7.55;86.07;99498.91;5064894;28;20277;-74
2021/11/22 06:25:51;;;;;;;10.07;4.43;;;;;;;7.48;85.25;99501.91;5061273;28;20704;-74
2021/11/22 06:28:19;;;;;;;7.95;4.35;;;;;;;7.31;85.46;99512.53;5057671;28;20206;-74
2021/11/22 06:30:46;;;;;;;13.82;4.90;;;;;;;7.40;85.82;99514.78;5060992;28;20219;-73
2021/11/22 06:33:13;;;;;;;6.05;4.13;;;;;;;7.50;85.21;99520.56;5060787;28;20276;-74
2021/11/22 06:35:40;;;;;;;5.25;3.80;;;;;;;7.34;84.96;99524.91;5060688;28;20248;-75
2021/11/22 06:38:08;;;;;;;7.30;4.05;;;;;;;7.40;85.72;99533.53;5061525;28;20242;-74
2021/11/22 06:40:35;;;;;;;6.25;3.60;;;;;;;7.39;85.45;99541.63;5066243;28;20221;-74
2021/11/22 06:43:02;;;;;;;4.45;3.30;;;;;;;7.21;85.16;99546.00;5063768;28;20190;-74
2021/11/22 06:45:28;;;;;;;14.30;4.75;;;;;;;7.25;85.41;99543.13;5066481;28;20614;-74
2021/11/22 06:47:55;;;;;;;10.07;4.85;;;;;;;7.22;85.95;99553.97;5060971;28;20221;-72
2021/11/22 06:50:22;;;;;;;10.23;3.90;;;;;;;7.20;86.08;99561.22;5063725;28;20221;-75
2021/11/22 06:52:49;;;;;;;13.43;7.70;;;;;;;7.38;86.37;99556.84;5063468;28;20268;-74
2021/11/22 06:55:18;;;;;;;15.35;8.60;;;;;;;7.23;86.37;99561.06;5060866;28;20213;-72
2021/11/22 06:57:45;;;;;;;8.45;3.78;;;;;;;7.22;85.34;99569.19;5062781;28;20185;-75
2021/11/22 07:00:14;;;;;;;7.68;3.63;;;;;;;7.27;84.81;99567.16;5057192;28;20553;-75
2021/11/22 07:02:41;;;;;;;14.20;5.20;;;;;;;7.21;84.97;99576.34;5058902;28;20190;-75
2021/11/22 07:05:08;;;;;;;7.72;4.25;;;;;;;7.07;85.89;99586.78;5058147;28;20236;-73
2021/11/22 07:07:36;;;;;;;11.45;4.55;;;;;;;7.12;86.02;99583.91;5068268;28;20228;-74
2021/11/22 07:10:03;;;;;;;9.85;3.92;;;;;;;7.16;85.31;99591.75;5064773;28;20221;-74
2021/11/22 07:12:31;;;;;;;4.93;3.33;;;;;;;7.09;85.55;99593.81;5064206;28;20297;-74
2021/11/22 07:14:59;;;;;;;7.40;3.85;;;;;;;7.09;85.20;99596.50;5067927;28;20189;-74
2021/11/22 07:17:25;;;;;;;6.97;3.78;;;;;;;7.12;85.36;99600.84;5068179;28;20182;-74
2021/11/22 07:19:53;;;;;;;6.40;3.90;;;;;;;7.24;84.72;99605.66;5061340;28;20286;-75
2021/11/22 07:22:20;;;;;;;5.15;3.50;;;;;;;7.25;84.29;99615.44;5065756;28;20216;-73
2021/11/22 07:24:47;;;;;;;7.63;3.70;;;;;;;7.12;84.29;99619.59;5069264;28;20233;-74
2021/11/22 07:27:14;;;;;;;7.78;3.92;;;;;;;7.31;83.47;99622.34;5059447;28;20190;-73
2021/11/22 07:29:43;;;;;;;7.53;3.17;;;;;;;7.27;83.04;99621.59;5064347;28;20335;-75
2021/11/22 07:32:10;;;;;;;10.82;4.25;;;;;;;7.28;82.28;99628.72;5067202;28;20185;-74
2021/11/22 07:34:38;;;;;;;10.00;3.83;;;;;;;7.16;82.43;99628.38;5066652;28;20189;-75
2021/11/22 07:37:05;;;;;;;10.40;3.10;;;;;;;7.15;83.52;99632.84;5061024;28;20301;-74
2021/11/22 07:39:32;;;;;;;8.85;3.30;;;;;;;7.29;82.76;99642.97;5067277;28;20190;-74
2021/11/22 07:41:58;;;;;;;8.48;3.03;;;;;;;7.11;81.82;99650.00;5064060;28;20218;-74
2021/11/22 07:44:26;;;;;;;9.30;4.03;;;;;;;7.00;81.68;99652.25;5057815;28;20257;-73
2021/11/22 07:46:56;;;;;;;8.43;3.58;;;;;;;7.19;82.26;99650.53;5060547;28;20268;-75
2021/11/22 07:49:22;;;;;;;8.23;3.83;;;;;;;7.21;81.78;99654.03;5068234;28;20648;-75
2021/11/22 07:51:49;;;;;;;6.88;2.90;;;;;;;7.17;80.81;99654.19;5060098;28;20269;-75
2021/11/22 07:54:16;;;;;;;6.75;3.30;;;;;;;7.19;81.35;99663.94;5067570;28;20213;-76
2021/11/22 07:56:43;;;;;;;6.75;3.40;;;;;;;7.18;81.16;99662.16;5067285;28;20221;-75
2021/11/22 07:59:10;;;;;;;16.42;4.55;;;;;;;7.24;80.83;99675.31;5067760;28;20190;-75
2021/11/22 08:01:36;;;;;;;7.82;3.20;;;;;;;7.15;80.38;99675.69;5065918;28;20217;-74
2021/11/22 08:04:12;;;;;;;6.72;3.58;;;;;;;7.11;80.83;99676.75;5062039;28;20229;-75
2021/11/22 08:06:39;;;;;;;10.50;3.80;;;;;;;7.13;80.44;99684.75;5057734;28;20190;-74
2021/11/22 08:09:12;;;;;;;10.93;4.47;;;;;;;7.15;81.08;99686.41;5068796;28;20232;-76
2021/11/22 08:11:48;;;;;;;7.97;3.15;;;;;;;7.00;80.95;99687.91;5070794;28;20192;-75
2021/11/22 08:14:15;;;;;;;6.70;3.00;;;;;;;6.94;82.26;99698.00;5069605;28;20232;-75
2021/11/22 08:16:42;;;;;;;8.88;3.50;;;;;;;6.85;81.23;99696.59;5069190;28;20213;-74
2021/11/22 08:19:10;;;;;;;7.00;3.15;;;;;;;6.76;81.74;99705.00;5065351;28;20281;-74
2021/11/22 08:21:37;;;;;;;6.90;3.28;;;;;;;6.73;82.59;99706.00;5065751;28;20276;-75
2021/11/22 08:24:04;;;;;;;8.77;3.13;;;;;;;6.65;82.88;99706.31;5067410;28;20229;-74
2021/11/22 08:26:30;;;;;;;11.23;4.07;;;;;;;6.59;82.85;99706.56;5074124;28;20235;-75
2021/11/22 08:28:57;;;;;;;5.63;3.15;;;;;;;6.61;81.79;99714.53;5074696;28;20297;-74
2021/11/22 08:31:24;;;;;;;6.97;3.20;;;;;;;6.48;82.30;99720.34;5075048;28;20296;-72
2021/11/22 08:33:50;;;;;;;8.55;3.40;;;;;;;6.57;82.57;99723.59;5074643;28;20221;-74
2021/11/22 08:36:20;;;;;;;7.25;3.35;;;;;;;6.64;81.94;99733.97;5074994;28;20277;-75
2021/11/22 08:38:47;;;;;;;8.90;3.40;;;;;;;6.64;82.28;99728.63;5073386;28;20299;-75
2021/11/22 08:41:13;;;;;;;12.73;3.85;;;;;;;6.65;81.83;99732.22;5062981;28;20658;-76
2021/11/22 08:43:40;;;;;;;3.67;3.13;;;;;;;6.70;81.72;99738.25;5054941;28;20277;-73
2021/11/22 08:46:07;;;;;;;6.20;3.78;;;;;;;6.59;80.70;99740.47;5056429;28;20253;-73
2021/11/22 08:48:33;;;;;;;9.70;3.88;;;;;;;6.85;81.46;99740.31;5058639;28;20281;-74
2021/11/22 08:51:02;;;;;;;11.73;3.20;;;;;;;6.88;80.25;99740.16;5054485;28;20225;-74
2021/11/22 08:53:30;;;;;;;5.25;3.40;;;;;;;6.66;80.24;99745.50;5054297;28;20206;-74
2021/11/22 08:55:57;;;;;;;7.18;3.15;;;;;;;6.85;80.94;99750.13;5054651;28;20236;-75
2021/11/22 08:58:24;;;;;;;5.75;2.97;;;;;;;6.87;79.47;99743.78;5056299;28;20628;-75
2021/11/22 09:00:51;;;;;;;6.60;3.00;;;;;;;7.01;79.65;99761.06;5066568;28;20240;-75
2021/11/22 09:03:18;;;;;;;4.05;3.10;;;;;;;7.09;78.15;99762.50;5074599;28;20612;-74
2021/11/22 09:05:44;;;;;;;5.60;2.35;;;;;;;7.04;78.15;99764.50;5074659;28;20316;-74
2021/11/22 09:08:13;;;;;;;7.70;2.60;;;;;;;6.90;78.60;99766.88;5074652;28;20656;-75
2021/11/22 09:10:41;;;;;;;5.88;2.78;;;;;;;7.08;78.14;99767.94;5074468;28;20540;-75
2021/11/22 09:13:07;;;;;;;3.70;2.63;;;;;;;6.95;77.66;99783.63;5074213;28;20217;-75
2021/11/22 09:15:34;;;;;;;9.60;2.60;;;;;;;7.02;77.43;99782.44;5074706;28;20181;-74
2021/11/22 09:18:01;;;;;;;6.07;2.55;;;;;;;7.07;77.51;99779.56;5074442;28;20237;-73
2021/11/22 09:20:28;;;;;;;4.18;3.78;;;;;;;7.11;77.52;99791.91;5074274;28;20271;-75
2021/11/22 09:22:57;;;;;;;11.70;3.92;;;;;;;7.23;76.51;99786.03;5071316;28;20186;-74
2021/11/22 09:25:24;;;;;;;6.40;3.00;;;;;;;7.18;76.04;99793.38;5053605;28;20249;-75
2021/11/22 09:27:52;;;;;;;6.35;2.60;;;;;;;7.36;75.48;99793.56;5054338;28;20217;-73
2021/11/22 09:30:19;;;;;;;3.17;2.42;;;;;;;7.64;74.25;99786.13;5054513;28;20289;-75
2021/11/22 09:32:46;;;;;;;4.90;2.90;;;;;;;7.69;73.59;99793.97;5055225;28;20202;-74
2021/11/22 09:35:13;;;;;;;3.88;2.65;;;;;;;7.58;72.45;99794.41;5054101;28;20223;-75
2021/11/22 09:37:40;;;;;;;5.88;2.88;;;;;;;7.56;72.44;99801.63;5054440;28;20191;-75
2021/11/22 09:40:09;;;;;;;4.55;2.35;;;;;;;7.59;72.73;99804.19;5053934;28;20206;-74
2021/11/22 09:42:36;;;;;;;6.47;2.50;;;;;;;7.57;72.01;99815.91;5053864;28;20224;-76
2021/11/22 09:45:07;;;;;;;3.78;2.40;;;;;;;7.68;72.06;99814.50;5053483;28;20203;-75
2021/11/22 09:47:34;;;;;;;3.83;2.50;;;;;;;7.69;71.25;99813.59;5054050;28;20273;-75
2021/11/22 09:50:02;;;;;;;3.85;2.47;;;;;;;7.64;70.80;99818.28;5053718;28;20281;-75
2021/11/22 09:52:30;;;;;;;4.03;2.17;;;;;;;7.83;70.71;99812.13;5053764;28;20260;-75
2021/11/22 09:54:57;;;;;;;4.20;2.20;;;;;;;7.92;69.75;99822.44;5053413;28;20255;-75
2021/11/22 09:57:23;;;;;;;5.10;2.50;;;;;;;7.82;69.69;99815.72;5053386;28;20186;-75
2021/11/22 09:59:50;;;;;;;3.40;2.20;;;;;;;7.91;69.85;99823.34;5053311;28;20205;-76
2021/11/22 10:02:18;;;;;;;5.90;3.03;;;;;;;8.05;69.08;99823.66;5053531;28;20222;-75
2021/11/22 10:04:45;;;;;;;3.55;2.30;;;;;;;8.20;68.62;99829.25;5053571;28;20710;-75
2021/11/22 10:07:15;;;;;;;4.40;2.10;;;;;;;8.59;67.46;99834.66;5053282;28;20302;-75
2021/11/22 10:09:45;;;;;;;8.48;2.40;;;;;;;8.87;66.16;99823.50;5053739;28;20616;-75
2021/11/22 10:12:16;;;;;;;4.85;3.88;;;;;;;9.08;64.81;99837.72;5053533;28;20268;-75
2021/11/22 10:14:47;;;;;;;4.75;2.15;;;;;;;9.19;63.74;99838.06;5053465;28;20284;-74
2021/11/22 10:17:25;;;;;;;3.50;2.60;;;;;;;9.14;63.38;99833.88;5053539;28;20272;-74
2021/11/22 10:20:21;;;;;;;4.20;2.55;;;;;;;8.93;63.70;99835.75;5053522;28;20197;-75
2021/11/22 10:22:53;;;;;;;2.70;2.03;;;;;;;8.68;63.79;99834.25;5050784;28;20198;-75
2021/11/22 10:25:24;;;;;;;2.95;1.80;;;;;;;8.54;64.37;99837.53;5033891;28;20207;-74
2021/11/22 10:27:51;;;;;;;3.30;2.15;;;;;;;8.67;63.65;99839.69;5032817;28;20188;-75
2021/11/22 10:30:24;;;;;;;5.40;2.20;;;;;;;8.36;64.10;99841.03;5033509;28;20613;-74
2021/11/22 10:32:56;;;;;;;4.45;2.88;;;;;;;8.51;64.72;99844.88;5033088;28;20234;-75
2021/11/22 10:35:23;;;;;;;3.13;2.30;;;;;;;8.27;65.08;99831.59;5033089;28;20253;-74
2021/11/22 10:37:55;;;;;;;5.85;2.13;;;;;;;8.26;65.48;99850.44;5033267;28;20230;-73
2021/11/22 10:40:22;;;;;;;3.72;2.40;;;;;;;8.33;66.02;99858.16;5033289;28;20391;-75
2021/11/22 10:42:49;;;;;;;3.35;2.13;;;;;;;8.44;65.02;99846.97;5033335;28;20276;-75
2021/11/22 10:45:27;;;;;;;7.68;3.78;;;;;;;8.39;66.02;99851.66;5032607;28;20303;-74
2021/11/22 10:48:21;;;;;;;2.92;2.50;;;;;;;8.46;65.89;99850.47;5032699;28;20275;-73
2021/11/22 10:50:52;;;;;;;4.07;2.20;;;;;;;8.20;65.84;99859.63;5030886;28;20209;-75
2021/11/22 10:53:32;;;;;;;5.07;2.30;;;;;;;8.27;66.28;99866.47;5046840;28;20185;-73
2021/11/22 10:55:59;;;;;;;3.30;2.05;;;;;;;8.47;65.12;99856.69;5060943;28;20221;-75
2021/11/22 10:58:47;;;;;;;3.88;2.35;;;;;;;8.42;65.48;99867.63;5052808;28;20271;-75
2021/11/22 11:01:23;;;;;;;3.38;2.30;;;;;;;8.80;64.31;99866.84;5051356;28;20571;-73
2021/11/22 11:03:56;;;;;;;5.35;3.42;;;;;;;8.64;64.22;99863.97;5072932;28;20281;-75
2021/11/22 11:06:38;;;;;;;3.75;2.45;;;;;;;8.50;64.98;99865.50;5072834;28;20213;-76
2021/11/22 11:09:07;;;;;;;4.93;2.22;;;;;;;8.21;66.04;99871.22;5072106;28;20236;-74
2021/11/22 11:11:33;;;;;;;4.20;2.45;;;;;;;8.00;66.00;99881.94;5071987;28;20183;-74
2021/11/22 11:14:05;;;;;;;6.63;2.08;;;;;;;7.87;66.72;99884.31;5052435;28;20253;-74
2021/11/22 11:16:32;;;;;;;4.53;2.30;;;;;;;8.01;66.34;99886.41;5052452;28;20180;-74
2021/11/22 11:19:02;;;;;;;4.88;2.08;;;;;;;7.75;66.48;99889.31;5052456;28;20619;-74
2021/11/22 11:21:30;;;;;;;5.78;2.90;;;;;;;7.77;66.38;99893.66;5052045;28;20198;-74
2021/11/22 11:23:59;;;;;;;5.50;3.55;;;;;;;7.84;66.09;99894.28;5052523;28;20281;-75
2021/11/22 11:26:27;;;;;;;2.90;2.20;;;;;;;7.93;65.65;99894.75;5051913;28;20292;-75
2021/11/22 11:28:55;;;;;;;6.00;4.50;;;;;;;8.14;65.46;99903.69;5052008;28;20236;-74
2021/11/22 11:31:22;;;;;;;2.67;2.40;;;;;;;8.40;64.88;99893.66;5052361;28;20269;-74
2021/11/22 11:33:49;;;;;;;5.00;3.03;;;;;;;8.61;64.52;99894.50;5051243;28;20226;-73
2021/11/22 11:36:32;;;;;;;3.95;2.60;;;;;;;8.88;63.59;99907.59;5052546;28;20624;-73
2021/11/22 11:39:10;;;;;;;4.38;2.40;;;;;;;8.67;63.25;99901.41;5051988;28;20218;-77